Time;durP1;ratioP1;P1;durP2;ratioP2;P2;SDS_P1;SDS_P2;PMS_P1;PMS_P2;Temp;Humidity;BMP_temperature;BMP_pressure;BME280_temperature;BME280_humidity;BME280_pressure;Samples;Min_cycle;Max_cycle;Signal;HPM_P1;HPM_P2
2023/12/05 00:01:12;;;;;;;8.50;1.83;;;28.70;54.80;;;;;;4992093;28;20231;-69
2023/12/05 00:03:39;;;;;;;6.90;1.73;;;28.50;55.90;;;;;;4992221;28;20268;-70
2023/12/05 00:06:10;;;;;;;7.47;1.90;;;28.60;54.80;;;;;;4989443;28;20224;-70
2023/12/05 00:08:38;;;;;;;7.00;2.00;;;28.70;55.90;;;;;;4993788;28;20213;-71
2023/12/05 00:11:07;;;;;;;6.97;1.93;;;28.70;56.20;;;;;;4993393;28;20704;-72
2023/12/05 00:13:35;;;;;;;7.00;1.80;;;28.30;56.80;;;;;;4995642;28;21970;-72
2023/12/05 00:16:02;;;;;;;3.43;1.50;;;28.60;56.80;;;;;;4992667;28;20170;-73
2023/12/05 00:18:30;;;;;;;6.37;1.60;;;28.70;55.80;;;;;;4970629;28;20286;-69
2023/12/05 00:20:57;;;;;;;10.10;2.03;;;28.80;55.80;;;;;;4995943;28;20174;-73
2023/12/05 00:23:24;;;;;;;8.53;2.10;;;28.70;55.30;;;;;;4990407;28;20182;-70
2023/12/05 00:25:52;;;;;;;6.17;1.83;;;28.80;55.70;;;;;;4987207;28;20700;-69
2023/12/05 00:28:19;;;;;;;6.87;2.07;;;28.90;55.50;;;;;;4992573;28;20226;-71
2023/12/05 00:30:46;;;;;;;7.30;1.83;;;29.10;55.70;;;;;;4991133;28;20185;-73
2023/12/05 00:33:14;;;;;;;6.90;1.80;;;29.20;54.80;;;;;;4990050;28;20224;-71
2023/12/05 00:35:41;;;;;;;8.67;1.93;;;29.10;55.10;;;;;;4975524;28;20189;-72
2023/12/05 00:38:08;;;;;;;7.17;1.97;;;29.20;55.50;;;;;;4990918;28;20183;-70
2023/12/05 00:40:36;;;;;;;4.87;1.90;;;29.10;55.50;;;;;;4993939;28;20325;-71
2023/12/05 00:43:03;;;;;;;6.77;1.80;;;29.10;55.20;;;;;;4987577;28;20190;-70
2023/12/05 00:45:30;;;;;;;8.43;2.17;;;29.00;55.10;;;;;;4985871;28;20178;-73
2023/12/05 00:47:58;;;;;;;7.67;2.27;;;29.10;55.00;;;;;;4988154;28;20746;-73
2023/12/05 00:50:25;;;;;;;6.93;2.20;;;29.10;55.70;;;;;;4983315;28;20187;-70
2023/12/05 00:52:52;;;;;;;7.43;1.90;;;28.90;56.50;;;;;;4982415;28;20824;-69
2023/12/05 00:55:20;;;;;;;5.20;2.20;;;29.20;56.20;;;;;;4980317;28;20260;-71
2023/12/05 00:57:48;;;;;;;13.93;2.37;;;29.30;54.40;;;;;;4988582;28;20748;-74
2023/12/05 01:00:15;;;;;;;6.37;2.07;;;29.40;54.70;;;;;;4986392;28;20186;-74
2023/12/05 01:02:43;;;;;;;7.53;2.40;;;29.60;55.00;;;;;;4991301;28;20269;-73
2023/12/05 01:05:10;;;;;;;5.97;1.93;;;29.90;54.70;;;;;;4992453;28;20193;-75
2023/12/05 01:07:38;;;;;;;6.73;2.00;;;30.10;53.90;;;;;;4982693;28;20619;-70
2023/12/05 01:10:05;;;;;;;8.00;1.60;;;29.90;53.80;;;;;;4994311;28;20181;-70
2023/12/05 01:12:33;;;;;;;8.93;2.40;;;29.70;54.70;;;;;;4988040;28;20189;-70
2023/12/05 01:15:00;;;;;;;7.03;1.83;;;29.80;54.20;;;;;;4985184;28;20237;-74
2023/12/05 01:17:27;;;;;;;8.70;2.53;;;30.20;54.20;;;;;;4986060;28;20194;-71
2023/12/05 01:19:55;;;;;;;12.43;2.30;;;29.90;53.70;;;;;;4991245;28;20193;-73
2023/12/05 01:22:24;;;;;;;9.23;1.97;;;30.00;53.60;;;;;;4987591;28;20182;-72
2023/12/05 01:24:56;;;;;;;7.80;2.13;;;29.80;54.50;;;;;;4980482;28;20187;-70
2023/12/05 01:27:23;;;;;;;9.57;2.23;;;29.60;54.80;;;;;;4991336;28;20689;-71
2023/12/05 01:29:50;;;;;;;7.17;2.20;;;30.00;54.70;;;;;;4977292;28;20214;-69
2023/12/05 01:32:18;;;;;;;5.40;2.30;;;30.20;54.10;;;;;;4982522;28;20182;-74
2023/12/05 01:34:45;;;;;;;7.03;2.00;;;30.50;53.90;;;;;;4979763;28;20218;-73
2023/12/05 01:37:13;;;;;;;7.53;2.70;;;30.30;53.70;;;;;;4989517;28;20217;-73
2023/12/05 01:39:40;;;;;;;11.80;2.60;;;30.30;52.80;;;;;;4988046;28;20229;-69
2023/12/05 01:42:07;;;;;;;6.93;2.07;;;30.40;52.90;;;;;;4987107;28;20182;-72
2023/12/05 01:44:34;;;;;;;8.57;3.10;;;30.30;53.70;;;;;;4992388;28;20277;-71
2023/12/05 01:47:03;;;;;;;8.90;2.27;;;30.40;53.40;;;;;;4991724;28;20289;-72
2023/12/05 01:49:33;;;;;;;10.07;2.53;;;30.60;52.60;;;;;;4987402;28;20194;-72
2023/12/05 01:52:02;;;;;;;4.77;2.20;;;30.70;52.80;;;;;;4983247;28;20190;-71
2023/12/05 01:54:32;;;;;;;7.13;2.57;;;30.70;53.30;;;;;;4981697;28;20289;-72
2023/12/05 01:57:01;;;;;;;6.60;1.90;;;30.90;52.10;;;;;;4981412;28;20224;-73
2023/12/05 01:59:28;;;;;;;6.87;2.73;;;30.90;52.20;;;;;;4988886;28;20196;-70
2023/12/05 02:01:56;;;;;;;7.43;2.17;;;30.80;51.30;;;;;;4986246;28;20185;-70
2023/12/05 02:04:24;;;;;;;8.00;2.97;;;30.60;52.00;;;;;;4993544;28;20177;-71
2023/12/05 02:06:51;;;;;;;5.40;2.30;;;30.80;52.70;;;;;;4982685;28;20175;-74
2023/12/05 02:09:22;;;;;;;9.33;2.33;;;31.10;51.10;;;;;;4985193;28;20192;-73
2023/12/05 02:11:50;;;;;;;6.77;2.33;;;31.40;50.40;;;;;;4980982;28;20186;-70
2023/12/05 02:14:19;;;;;;;10.00;2.63;;;31.20;50.20;;;;;;4982787;28;20554;-70
2023/12/05 02:16:49;;;;;;;7.00;2.47;;;31.30;50.10;;;;;;4988345;28;20195;-69
2023/12/05 02:19:28;;;;;;;6.83;2.03;;;31.20;50.10;;;;;;4980869;28;20548;-71
2023/12/05 02:22:00;;;;;;;11.70;2.95;;;31.20;50.10;;;;;;4978772;28;20174;-71
2023/12/05 02:25:14;;;;;;;7.88;2.60;;;31.30;50.50;;;;;;4982219;28;20502;-67
2023/12/05 02:27:42;;;;;;;8.70;2.40;;;31.20;50.20;;;;;;4981503;28;20217;-72
2023/12/05 02:30:11;;;;;;;5.95;2.30;;;31.40;49.60;;;;;;4990550;28;20193;-70
2023/12/05 02:32:38;;;;;;;9.63;2.27;;;31.40;50.80;;;;;;4991906;28;20178;-69
2023/12/05 02:35:06;;;;;;;7.10;2.42;;;31.80;49.90;;;;;;4989307;28;20368;-71
2023/12/05 02:37:38;;;;;;;10.20;2.72;;;32.10;49.20;;;;;;4991549;28;20277;-70
2023/12/05 02:40:07;;;;;;;4.03;1.85;;;32.30;48.90;;;;;;4979281;28;20189;-71
2023/12/05 02:42:36;;;;;;;10.65;3.08;;;32.10;48.50;;;;;;4979962;28;20194;-73
2023/12/05 02:45:07;;;;;;;7.72;2.58;;;32.20;49.40;;;;;;4985130;28;20182;-74
2023/12/05 02:47:37;;;;;;;8.10;2.47;;;32.20;48.90;;;;;;4980983;28;20189;-70
2023/12/05 02:50:05;;;;;;;6.53;2.40;;;31.90;49.20;;;;;;4981040;28;20188;-70
2023/12/05 02:52:32;;;;;;;4.32;2.30;;;31.80;49.40;;;;;;4980189;28;20365;-70
2023/12/05 02:54:59;;;;;;;8.20;2.40;;;31.60;49.70;;;;;;4979263;28;20225;-71
2023/12/05 02:57:27;;;;;;;10.20;2.33;;;31.80;50.40;;;;;;4982692;28;20195;-69
2023/12/05 02:59:54;;;;;;;6.47;2.08;;;32.20;48.70;;;;;;4976807;28;20182;-71
2023/12/05 03:02:21;;;;;;;12.00;3.05;;;32.00;48.80;;;;;;4982987;28;20189;-69
2023/12/05 03:04:48;;;;;;;6.70;2.25;;;32.20;48.50;;;;;;4984105;28;20178;-69
2023/12/05 03:07:16;;;;;;;11.10;2.08;;;31.80;49.80;;;;;;4985691;28;20182;-72
2023/12/05 03:09:43;;;;;;;6.78;2.22;;;32.20;49.00;;;;;;4985520;28;20680;-70
2023/12/05 03:12:10;;;;;;;6.72;2.25;;;31.90;49.20;;;;;;4983680;28;20214;-69
2023/12/05 03:14:38;;;;;;;8.07;2.28;;;32.00;49.80;;;;;;4980799;28;20225;-69
2023/12/05 03:17:05;;;;;;;6.80;2.30;;;32.20;49.20;;;;;;4988815;28;20186;-69
2023/12/05 03:19:32;;;;;;;5.75;2.10;;;32.30;48.20;;;;;;4982907;28;20189;-71
2023/12/05 03:22:00;;;;;;;8.57;2.30;;;32.10;48.50;;;;;;4985242;28;20213;-70
2023/12/05 03:24:27;;;;;;;8.07;2.40;;;31.70;50.00;;;;;;4986479;28;20209;-72
2023/12/05 03:26:55;;;;;;;7.03;2.20;;;32.10;49.50;;;;;;4983390;28;20969;-71
2023/12/05 03:29:22;;;;;;;6.07;2.00;;;32.60;48.80;;;;;;4982899;28;20290;-73
2023/12/05 03:31:50;;;;;;;8.73;1.77;;;32.30;48.40;;;;;;4988607;28;20178;-70
2023/12/05 03:34:20;;;;;;;11.85;2.58;;;32.70;48.50;;;;;;4991909;28;20579;-70
2023/12/05 03:36:47;;;;;;;8.52;1.98;;;32.80;47.40;;;;;;4992635;28;20174;-72
2023/12/05 03:39:17;;;;;;;6.53;2.05;;;32.90;46.50;;;;;;4990175;28;20182;-73
2023/12/05 03:41:47;;;;;;;7.25;2.30;;;32.60;47.10;;;;;;4992408;28;20274;-70
2023/12/05 03:44:14;;;;;;;12.13;2.00;;;32.90;47.00;;;;;;4992770;28;20185;-70
2023/12/05 03:46:41;;;;;;;9.52;2.25;;;33.30;46.70;;;;;;4988692;28;20269;-68
2023/12/05 03:49:09;;;;;;;8.93;2.10;;;33.10;46.30;;;;;;4992199;28;20213;-68
2023/12/05 03:51:36;;;;;;;9.20;1.88;;;33.00;46.30;;;;;;4992559;28;20531;-69
2023/12/05 03:54:03;;;;;;;8.52;1.90;;;33.30;45.90;;;;;;4991782;28;20297;-70
2023/12/05 03:56:31;;;;;;;6.43;2.10;;;32.90;47.00;;;;;;4991566;28;20178;-73
2023/12/05 03:58:58;;;;;;;6.07;1.83;;;33.30;45.40;;;;;;4985651;28;20232;-73
2023/12/05 04:01:25;;;;;;;12.90;3.00;;;33.60;45.30;;;;;;4986547;28;20530;-69
2023/12/05 04:03:53;;;;;;;11.07;1.90;;;33.90;45.30;;;;;;4976242;28;20592;-70
2023/12/05 04:06:21;;;;;;;6.32;1.88;;;33.90;44.70;;;;;;4986057;28;20178;-69
2023/12/05 04:08:50;;;;;;;5.03;1.90;;;34.00;43.60;;;;;;4995080;28;20257;-71
2023/12/05 04:11:18;;;;;;;11.05;2.20;;;33.10;45.90;;;;;;4992492;28;20194;-68
2023/12/05 04:13:45;;;;;;;8.35;2.05;;;33.30;46.30;;;;;;4995142;28;20325;-70
2023/12/05 04:16:12;;;;;;;7.07;2.40;;;33.30;45.30;;;;;;4993672;28;20209;-70
2023/12/05 04:18:40;;;;;;;9.27;2.22;;;33.10;46.50;;;;;;4994227;28;20702;-70
2023/12/05 04:21:07;;;;;;;7.05;1.88;;;33.20;45.60;;;;;;4982706;28;20182;-70
2023/12/05 04:23:35;;;;;;;4.32;1.75;;;33.70;45.50;;;;;;4977013;28;20629;-69
2023/12/05 04:26:02;;;;;;;5.45;2.00;;;33.30;44.70;;;;;;4995850;28;20182;-70
2023/12/05 04:28:32;;;;;;;6.80;2.08;;;32.90;45.20;;;;;;4979406;28;20253;-71
2023/12/05 04:30:59;;;;;;;7.50;1.80;;;33.40;45.30;;;;;;4993807;28;20194;-70
2023/12/05 04:33:26;;;;;;;8.18;1.75;;;33.40;44.90;;;;;;4989931;28;20744;-70
2023/12/05 04:35:54;;;;;;;7.32;1.67;;;33.30;45.90;;;;;;4994658;28;20369;-71
2023/12/05 04:38:21;;;;;;;5.75;1.50;;;33.70;44.50;;;;;;4994992;28;20707;-74
2023/12/05 04:40:48;;;;;;;6.53;2.13;;;33.00;46.50;;;;;;4987562;28;20273;-73
2023/12/05 04:43:16;;;;;;;7.38;1.67;;;33.50;45.90;;;;;;4971213;28;20186;-71
2023/12/05 04:45:43;;;;;;;7.65;1.85;;;33.30;45.90;;;;;;4994293;28;20190;-73
2023/12/05 04:48:10;;;;;;;8.20;2.00;;;33.90;45.40;;;;;;4994259;28;20317;-74
2023/12/05 04:50:38;;;;;;;7.60;1.85;;;34.30;44.10;;;;;;4990346;28;20186;-71
2023/12/05 04:53:05;;;;;;;5.30;1.60;;;34.30;43.90;;;;;;4983912;28;20178;-71
2023/12/05 04:55:32;;;;;;;12.05;1.77;;;34.30;44.50;;;;;;4994441;28;20182;-72
2023/12/05 04:57:59;;;;;;;8.23;1.85;;;34.80;43.60;;;;;;4995054;28;20209;-68
2023/12/05 05:00:27;;;;;;;4.10;1.67;;;34.50;43.60;;;;;;4994785;28;20177;-70
2023/12/05 05:02:54;;;;;;;9.35;1.73;;;34.30;44.00;;;;;;4994918;28;20244;-70
2023/12/05 05:05:21;;;;;;;7.82;1.70;;;34.50;44.10;;;;;;4988587;28;20178;-68
2023/12/05 05:07:49;;;;;;;5.75;2.00;;;34.60;43.50;;;;;;4994669;28;20931;-69
2023/12/05 05:10:16;;;;;;;8.07;1.90;;;34.10;43.70;;;;;;4993687;28;20192;-69
2023/12/05 05:12:43;;;;;;;4.18;1.48;;;34.30;44.20;;;;;;4991867;28;20220;-68
2023/12/05 05:15:11;;;;;;;7.40;1.60;;;33.60;45.00;;;;;;4993112;28;20620;-70
2023/12/05 05:17:38;;;;;;;3.75;1.77;;;33.60;44.40;;;;;;4993326;28;20190;-73
2023/12/05 05:20:07;;;;;;;8.52;1.60;;;34.10;43.50;;;;;;4994061;28;20666;-76
2023/12/05 05:22:35;;;;;;;8.75;1.85;;;33.60;44.50;;;;;;4991112;28;20256;-73
2023/12/05 05:25:02;;;;;;;6.70;1.67;;;33.70;44.40;;;;;;4989900;28;20667;-69
2023/12/05 05:27:30;;;;;;;7.00;1.60;;;33.60;44.10;;;;;;4992644;28;20728;-73
2023/12/05 05:29:57;;;;;;;4.47;1.38;;;33.40;44.90;;;;;;4992805;28;20648;-70
2023/12/05 05:32:24;;;;;;;8.82;1.77;;;32.90;45.40;;;;;;4985033;28;20190;-69
2023/12/05 05:34:52;;;;;;;7.05;1.83;;;33.10;44.90;;;;;;4982429;28;20206;-73
2023/12/05 05:37:20;;;;;;;8.75;1.60;;;33.20;45.20;;;;;;4993131;28;20660;-69
2023/12/05 05:39:47;;;;;;;7.65;2.00;;;33.20;44.90;;;;;;4977040;28;20189;-70
2023/12/05 05:42:15;;;;;;;5.55;1.80;;;33.50;44.10;;;;;;4994226;28;20509;-71
2023/12/05 05:44:44;;;;;;;6.93;1.67;;;33.80;43.50;;;;;;4993477;28;20653;-70
2023/12/05 05:47:11;;;;;;;6.18;1.50;;;33.60;43.10;;;;;;4976378;28;20633;-70
2023/12/05 05:49:39;;;;;;;9.57;1.80;;;33.50;43.60;;;;;;4994349;28;20186;-71
2023/12/05 05:52:07;;;;;;;6.82;1.77;;;33.90;42.90;;;;;;4970017;28;20672;-70
2023/12/05 05:54:34;;;;;;;7.30;2.25;;;33.80;43.30;;;;;;4989165;28;20228;-69
2023/12/05 05:57:01;;;;;;;6.35;2.17;;;33.90;43.00;;;;;;4993795;28;20607;-74
2023/12/05 05:59:29;;;;;;;7.03;1.70;;;34.10;42.20;;;;;;4994419;28;20188;-68
2023/12/05 06:01:56;;;;;;;4.22;1.77;;;34.10;42.10;;;;;;4994043;28;20181;-69
2023/12/05 06:04:23;;;;;;;4.70;1.45;;;33.60;42.90;;;;;;4989763;28;20202;-70
2023/12/05 06:06:51;;;;;;;4.47;1.40;;;33.90;41.90;;;;;;4987608;28;20272;-68
2023/12/05 06:09:18;;;;;;;9.40;2.15;;;33.60;42.30;;;;;;4986814;28;20182;-74
2023/12/05 06:11:45;;;;;;;6.68;2.05;;;33.30;43.20;;;;;;4991800;28;20226;-73
2023/12/05 06:14:13;;;;;;;4.95;1.55;;;33.40;43.30;;;;;;4992745;28;20209;-74
2023/12/05 06:16:40;;;;;;;6.97;2.17;;;34.10;42.30;;;;;;4989986;28;20186;-77
2023/12/05 06:19:07;;;;;;;6.75;2.40;;;33.80;43.70;;;;;;4992321;28;20187;-74
2023/12/05 06:21:35;;;;;;;11.13;2.25;;;33.90;43.90;;;;;;4984685;28;20209;-72
2023/12/05 06:24:02;;;;;;;7.50;2.65;;;33.60;44.20;;;;;;4992381;28;20209;-74
2023/12/05 06:26:29;;;;;;;6.50;1.92;;;32.90;44.00;;;;;;4993806;28;20224;-75
2023/12/05 06:28:56;;;;;;;4.97;1.77;;;32.80;44.50;;;;;;4993538;28;20275;-74
2023/12/05 06:31:24;;;;;;;7.30;2.13;;;33.30;42.90;;;;;;4981863;28;20179;-76
2023/12/05 06:33:51;;;;;;;4.32;1.88;;;33.50;43.40;;;;;;4992434;28;20206;-74
2023/12/05 06:36:19;;;;;;;6.40;2.17;;;33.00;44.10;;;;;;4988829;28;20188;-73
2023/12/05 06:38:46;;;;;;;7.65;2.28;;;33.10;44.10;;;;;;4988666;28;20174;-69
2023/12/05 06:41:13;;;;;;;9.02;2.67;;;33.30;43.80;;;;;;4992017;28;20197;-70
2023/12/05 06:43:40;;;;;;;7.18;2.22;;;33.40;43.30;;;;;;4992436;28;20224;-71
2023/12/05 06:46:08;;;;;;;7.57;2.22;;;33.30;43.90;;;;;;4992778;28;20186;-71
2023/12/05 06:48:35;;;;;;;8.88;2.60;;;33.00;44.40;;;;;;4992780;28;20197;-69
2023/12/05 06:51:03;;;;;;;6.78;2.53;;;33.60;43.90;;;;;;4992279;28;20214;-69
2023/12/05 06:53:31;;;;;;;8.40;2.60;;;33.10;44.20;;;;;;4992074;28;20202;-71
2023/12/05 06:55:58;;;;;;;7.63;2.65;;;32.80;44.50;;;;;;4991104;28;20550;-72
2023/12/05 06:58:25;;;;;;;7.10;2.75;;;33.00;44.70;;;;;;4982950;28;20182;-71
2023/12/05 07:00:53;;;;;;;9.40;2.70;;;33.30;43.90;;;;;;4980052;28;20182;-72
2023/12/05 07:03:22;;;;;;;7.07;2.65;;;33.30;43.70;;;;;;4991365;28;20188;-73
2023/12/05 07:05:49;;;;;;;11.50;2.42;;;33.00;44.50;;;;;;4990789;28;20201;-71
2023/12/05 07:08:18;;;;;;;6.47;2.30;;;32.60;45.30;;;;;;4986902;28;20644;-70
2023/12/05 07:10:45;;;;;;;7.55;2.13;;;32.50;45.10;;;;;;4991615;28;20196;-71
2023/12/05 07:13:13;;;;;;;6.07;2.13;;;31.70;46.90;;;;;;4988935;28;20178;-69
2023/12/05 07:15:40;;;;;;;6.90;3.03;;;31.20;48.20;;;;;;4987497;28;20277;-72
2023/12/05 07:18:08;;;;;;;9.45;2.63;;;30.50;49.40;;;;;;4981841;28;20603;-73
2023/12/05 07:20:36;;;;;;;7.28;2.00;;;30.10;50.50;;;;;;4984588;28;20286;-69
2023/12/05 07:23:03;;;;;;;7.85;2.75;;;29.80;51.30;;;;;;4987839;28;20518;-69
2023/12/05 07:25:30;;;;;;;8.97;2.80;;;29.60;52.10;;;;;;4988860;28;20178;-70
2023/12/05 07:27:58;;;;;;;10.97;2.53;;;29.50;52.30;;;;;;4983696;28;20226;-69
2023/12/05 07:30:25;;;;;;;8.93;2.50;;;29.20;53.20;;;;;;4981338;28;20189;-69
2023/12/05 07:32:52;;;;;;;10.83;2.30;;;29.20;53.30;;;;;;4985232;28;20220;-71
2023/12/05 07:35:20;;;;;;;6.93;2.30;;;29.10;53.40;;;;;;4983644;28;20274;-71
2023/12/05 07:37:47;;;;;;;7.83;2.60;;;29.00;53.70;;;;;;4985333;28;20197;-71
2023/12/05 07:40:14;;;;;;;8.60;2.13;;;29.00;54.10;;;;;;4986679;28;20185;-70
2023/12/05 07:42:44;;;;;;;8.17;2.50;;;28.80;54.50;;;;;;4988251;28;20195;-69
2023/12/05 07:45:11;;;;;;;9.83;2.63;;;28.70;55.00;;;;;;4994476;28;20189;-72
2023/12/05 07:47:39;;;;;;;11.93;2.47;;;28.40;55.80;;;;;;4995985;28;20703;-72
2023/12/05 07:50:07;;;;;;;10.07;2.87;;;28.30;55.80;;;;;;4991843;28;20174;-72
2023/12/05 07:52:34;;;;;;;5.87;2.60;;;28.40;55.70;;;;;;4987177;28;20206;-74
2023/12/05 07:55:01;;;;;;;10.57;2.47;;;28.40;56.00;;;;;;4983139;28;20707;-73
2023/12/05 07:57:28;;;;;;;11.03;2.50;;;28.40;56.20;;;;;;4992222;28;20178;-72
2023/12/05 07:59:56;;;;;;;7.13;2.27;;;28.30;56.10;;;;;;4986169;28;20703;-71
2023/12/05 08:02:23;;;;;;;6.00;2.10;;;28.30;56.60;;;;;;4990698;28;20212;-71
2023/12/05 08:04:51;;;;;;;12.17;2.70;;;28.30;56.70;;;;;;4990539;28;20269;-71
2023/12/05 08:07:18;;;;;;;7.13;2.20;;;28.20;57.10;;;;;;4989998;28;20209;-71
2023/12/05 08:09:45;;;;;;;10.77;2.43;;;28.10;57.40;;;;;;4994759;28;20562;-71
2023/12/05 08:12:13;;;;;;;9.43;3.00;;;28.00;57.70;;;;;;4993503;28;20195;-72
2023/12/05 08:14:40;;;;;;;9.73;2.77;;;27.90;57.90;;;;;;4994539;28;20249;-73
2023/12/05 08:17:07;;;;;;;12.47;3.33;;;27.90;58.10;;;;;;4995111;28;20190;-72
2023/12/05 08:19:35;;;;;;;10.53;2.93;;;27.80;58.30;;;;;;4982756;28;20193;-71
2023/12/05 08:22:02;;;;;;;12.20;3.23;;;27.70;58.70;;;;;;4980683;28;20261;-74
2023/12/05 08:24:30;;;;;;;11.90;3.00;;;27.70;58.80;;;;;;4993358;28;20197;-71
2023/12/05 08:26:58;;;;;;;10.27;3.10;;;27.60;59.00;;;;;;4977753;28;20616;-74
2023/12/05 08:29:26;;;;;;;11.20;3.30;;;27.50;59.30;;;;;;4984374;28;20197;-71
2023/12/05 08:31:53;;;;;;;12.23;3.20;;;27.40;59.30;;;;;;4994715;28;20313;-72
2023/12/05 08:34:20;;;;;;;9.97;3.27;;;27.30;59.70;;;;;;4995612;28;20206;-74
2023/12/05 08:36:48;;;;;;;16.90;3.47;;;27.20;60.00;;;;;;4993783;28;20174;-73
2023/12/05 08:39:15;;;;;;;10.80;2.97;;;27.20;60.00;;;;;;4991986;28;20178;-71
2023/12/05 08:41:42;;;;;;;8.57;2.80;;;27.10;60.20;;;;;;4992319;28;20174;-71
2023/12/05 08:44:09;;;;;;;7.07;2.27;;;27.10;60.30;;;;;;4994620;28;20213;-73
2023/12/05 08:46:37;;;;;;;11.90;3.00;;;27.00;60.60;;;;;;4995040;28;20264;-71
2023/12/05 08:49:05;;;;;;;14.23;2.87;;;26.90;60.60;;;;;;4994067;28;20213;-70
2023/12/05 08:51:32;;;;;;;9.83;2.90;;;26.90;60.80;;;;;;4994301;28;20186;-72
2023/12/05 08:54:00;;;;;;;11.43;2.80;;;26.90;61.10;;;;;;4994948;28;20222;-71
2023/12/05 08:56:27;;;;;;;12.87;2.97;;;26.80;61.30;;;;;;4995106;28;20174;-70
2023/12/05 08:58:54;;;;;;;9.93;2.60;;;26.80;61.50;;;;;;4993734;28;20244;-71
2023/12/05 09:01:23;;;;;;;12.77;3.17;;;26.70;61.70;;;;;;4992919;28;20582;-72
2023/12/05 09:03:51;;;;;;;9.80;3.17;;;26.70;61.80;;;;;;4993571;28;20213;-73
2023/12/05 09:06:18;;;;;;;10.37;2.90;;;26.60;61.90;;;;;;4992670;28;20178;-73
2023/12/05 09:08:46;;;;;;;7.57;2.57;;;26.60;62.10;;;;;;4985585;28;20273;-72
2023/12/05 09:11:14;;;;;;;11.33;3.17;;;26.50;62.30;;;;;;4988670;28;20261;-71
2023/12/05 09:13:41;;;;;;;15.77;3.50;;;26.50;62.30;;;;;;4994556;28;20205;-71
2023/12/05 09:16:09;;;;;;;10.33;2.87;;;26.50;62.40;;;;;;4994823;28;20265;-71
2023/12/05 09:18:36;;;;;;;10.10;2.50;;;26.50;62.60;;;;;;4987746;28;20551;-70
2023/12/05 09:21:03;;;;;;;14.03;3.30;;;26.40;62.70;;;;;;4994702;28;20186;-70
2023/12/05 09:23:31;;;;;;;11.13;3.10;;;26.30;62.70;;;;;;4990875;28;20249;-70
2023/12/05 09:25:58;;;;;;;12.90;2.20;;;26.30;62.90;;;;;;4994194;28;20186;-72
2023/12/05 09:28:27;;;;;;;10.13;2.57;;;26.30;62.80;;;;;;4987763;28;20223;-73
2023/12/05 09:30:55;;;;;;;13.67;3.23;;;26.30;62.80;;;;;;4983934;28;20569;-74
2023/12/05 09:33:22;;;;;;;9.97;2.83;;;26.30;63.00;;;;;;4984028;28;20584;-72
2023/12/05 09:35:49;;;;;;;10.00;3.03;;;26.30;63.30;;;;;;4988550;28;20282;-71
2023/12/05 09:38:17;;;;;;;11.70;3.10;;;26.30;63.60;;;;;;4989689;28;20182;-70
2023/12/05 09:40:44;;;;;;;11.20;2.57;;;26.20;63.90;;;;;;4987397;28;20228;-69
2023/12/05 09:43:12;;;;;;;16.87;3.40;;;26.20;64.10;;;;;;4994644;28;20277;-70
2023/12/05 09:45:42;;;;;;;13.57;3.07;;;26.20;64.20;;;;;;4991246;28;20186;-70
2023/12/05 09:48:11;;;;;;;14.27;2.90;;;26.10;64.60;;;;;;4993837;28;20192;-73
2023/12/05 09:50:39;;;;;;;10.07;3.30;;;26.10;64.60;;;;;;4990157;28;20178;-72
2023/12/05 09:53:09;;;;;;;13.70;3.53;;;26.00;64.70;;;;;;4993914;28;20194;-71
2023/12/05 09:55:38;;;;;;;12.10;3.57;;;26.10;64.80;;;;;;4994387;28;20739;-70
2023/12/05 09:58:06;;;;;;;12.57;3.30;;;26.10;65.00;;;;;;4992899;28;20182;-70
2023/12/05 10:00:34;;;;;;;14.23;3.50;;;26.10;65.20;;;;;;4986156;28;20198;-72
2023/12/05 10:03:06;;;;;;;8.93;3.43;;;26.10;65.30;;;;;;4975542;28;20217;-71
2023/12/05 10:05:39;;;;;;;10.17;3.37;;;26.00;65.50;;;;;;4986612;28;20185;-72
2023/12/05 10:08:08;;;;;;;15.03;3.47;;;26.00;65.90;;;;;;4989737;28;20198;-70
2023/12/05 10:10:38;;;;;;;16.60;3.77;;;26.00;66.00;;;;;;4993136;28;20182;-73
2023/12/05 10:13:06;;;;;;;11.90;4.07;;;26.00;65.90;;;;;;4980949;28;20276;-69
2023/12/05 10:15:35;;;;;;;17.40;3.80;;;26.00;65.90;;;;;;4986661;28;20591;-69
2023/12/05 10:18:03;;;;;;;12.70;3.87;;;26.00;65.70;;;;;;4993511;28;20261;-71
2023/12/05 10:20:30;;;;;;;14.47;4.00;;;26.00;65.60;;;;;;4992151;28;20182;-72
2023/12/05 10:22:58;;;;;;;16.90;4.03;;;26.10;65.70;;;;;;4992912;28;20185;-72
2023/12/05 10:25:25;;;;;;;17.03;4.20;;;26.10;65.90;;;;;;4991801;28;20716;-72
2023/12/05 10:28:06;;;;;;;14.13;4.83;;;26.00;66.20;;;;;;4993497;28;20222;-71
2023/12/05 10:30:37;;;;;;;9.20;4.10;;;26.00;66.50;;;;;;4980006;28;20684;-72
2023/12/05 10:33:11;;;;;;;16.23;4.70;;;26.00;66.60;;;;;;4983020;28;20201;-71
2023/12/05 10:35:38;;;;;;;14.57;4.70;;;26.00;67.00;;;;;;4984181;28;20206;-72
2023/12/05 10:38:10;;;;;;;10.37;4.37;;;25.90;67.10;;;;;;4988577;28;20194;-72
2023/12/05 10:40:57;;;;;;;11.33;4.17;;;25.90;67.10;;;;;;4986267;28;20230;-72
2023/12/05 10:43:26;;;;;;;12.33;4.43;;;25.90;67.20;;;;;;4993786;28;20225;-72
2023/12/05 10:45:55;;;;;;;12.57;4.60;;;25.90;67.20;;;;;;4992952;28;20178;-71
2023/12/05 10:48:25;;;;;;;12.97;4.53;;;25.90;67.20;;;;;;4992630;28;20189;-72
2023/12/05 10:50:53;;;;;;;16.73;5.20;;;25.90;67.60;;;;;;4992611;28;20637;-72
2023/12/05 10:53:20;;;;;;;13.37;4.27;;;25.90;67.70;;;;;;4993408;28;20182;-72
2023/12/05 10:55:48;;;;;;;14.30;4.70;;;25.90;67.80;;;;;;4993634;28;20185;-73
2023/12/05 10:58:15;;;;;;;17.53;4.63;;;25.90;68.00;;;;;;4992655;28;20181;-71
2023/12/05 11:00:43;;;;;;;18.97;4.53;;;25.90;68.20;;;;;;4975253;28;20201;-72
2023/12/05 11:03:14;;;;;;;19.10;5.57;;;25.90;68.40;;;;;;4992982;28;20189;-72
2023/12/05 11:05:41;;;;;;;12.77;4.27;;;25.80;68.50;;;;;;4993680;28;20656;-71
2023/12/05 11:08:09;;;;;;;15.83;4.57;;;25.80;68.70;;;;;;4985998;28;20522;-70
2023/12/05 11:10:38;;;;;;;11.40;4.57;;;25.80;68.80;;;;;;4991313;28;20244;-70
2023/12/05 11:13:05;;;;;;;16.93;4.60;;;25.80;68.60;;;;;;4987903;28;20868;-70
2023/12/05 11:15:39;;;;;;;13.47;4.53;;;25.80;68.60;;;;;;4986975;28;20305;-72
2023/12/05 11:18:33;;;;;;;13.47;4.60;;;25.90;68.60;;;;;;4991415;28;20536;-70
2023/12/05 11:21:44;;;;;;;16.37;4.43;;;25.90;68.70;;;;;;4985196;28;20194;-70
2023/12/05 11:24:38;;;;;;;14.73;4.43;;;25.90;68.50;;;;;;4951109;28;20247;-73
2023/12/05 11:27:05;;;;;;;10.97;4.70;;;25.90;68.60;;;;;;4943532;28;20646;-73
2023/12/05 11:29:59;;;;;;;12.93;4.00;;;25.90;68.50;;;;;;4979873;28;20218;-73
2023/12/05 11:32:52;;;;;;;20.60;4.80;;;25.90;68.40;;;;;;4980356;28;20186;-73
2023/12/05 11:35:42;;;;;;;15.43;4.63;;;25.90;68.50;;;;;;4986347;28;20312;-72
2023/12/05 11:38:15;;;;;;;18.33;4.90;;;26.00;68.50;;;;;;4992685;28;20181;-72
2023/12/05 11:40:42;;;;;;;19.10;4.93;;;26.00;68.20;;;;;;4966137;28;20209;-73
2023/12/05 11:43:11;;;;;;;17.57;5.50;;;25.90;68.30;;;;;;4991708;28;20648;-71
2023/12/05 11:45:42;;;;;;;14.27;5.07;;;25.90;68.30;;;;;;4985543;28;20182;-73
2023/12/05 11:48:21;;;;;;;17.87;4.80;;;25.90;68.40;;;;;;4992623;28;20221;-73
2023/12/05 11:50:49;;;;;;;14.63;4.33;;;25.90;68.60;;;;;;4990938;28;20197;-71
2023/12/05 11:53:19;;;;;;;12.57;4.37;;;25.80;68.70;;;;;;4987707;28;20182;-72
2023/12/05 11:55:47;;;;;;;19.23;4.90;;;25.80;68.90;;;;;;4992120;28;20652;-71
2023/12/05 11:58:29;;;;;;;13.47;4.30;;;25.80;69.20;;;;;;4991650;28;20233;-71
2023/12/05 12:01:10;;;;;;;13.10;4.10;;;25.80;69.30;;;;;;4991544;28;20205;-72
2023/12/05 12:03:52;;;;;;;15.67;4.33;;;25.70;69.50;;;;;;4990438;28;20185;-72
2023/12/05 12:06:22;;;;;;;13.83;4.70;;;25.70;69.80;;;;;;4988635;28;20625;-72
2023/12/05 12:08:56;;;;;;;13.20;4.17;;;25.70;69.80;;;;;;4992415;28;20237;-72
2023/12/05 12:11:24;;;;;;;19.33;5.03;;;25.60;69.80;;;;;;4985661;28;20186;-72
2023/12/05 12:13:51;;;;;;;14.17;4.10;;;25.50;69.90;;;;;;4984050;28;20742;-71
2023/12/05 12:16:20;;;;;;;19.23;4.80;;;25.50;70.20;;;;;;4986509;28;20688;-72
2023/12/05 12:18:48;;;;;;;14.37;4.23;;;25.50;70.40;;;;;;4982438;28;20264;-71
2023/12/05 12:21:15;;;;;;;17.70;5.00;;;25.50;70.70;;;;;;4987232;28;20177;-71
2023/12/05 12:23:43;;;;;;;13.87;4.10;;;25.50;70.70;;;;;;4994252;28;20720;-71
2023/12/05 12:26:11;;;;;;;12.30;4.53;;;25.50;70.60;;;;;;4994937;28;20785;-71
2023/12/05 12:28:39;;;;;;;15.53;4.17;;;25.40;70.60;;;;;;4988846;28;20261;-70
2023/12/05 12:31:07;;;;;;;17.20;4.67;;;25.40;70.70;;;;;;4986729;28;20185;-71
2023/12/05 12:33:41;;;;;;;16.43;4.40;;;25.50;70.80;;;;;;4995276;28;20185;-71
2023/12/05 12:36:10;;;;;;;13.97;4.67;;;25.50;70.80;;;;;;4993741;28;20216;-71
2023/12/05 12:38:38;;;;;;;17.60;4.60;;;25.40;70.70;;;;;;4993497;28;20228;-73
2023/12/05 12:41:09;;;;;;;20.87;4.83;;;25.50;70.40;;;;;;4987152;28;20595;-73
2023/12/05 12:43:36;;;;;;;19.77;4.93;;;25.60;69.90;;;;;;4992320;28;20228;-72
2023/12/05 12:46:03;;;;;;;16.80;4.47;;;25.60;69.80;;;;;;4995098;28;20261;-71
2023/12/05 12:48:31;;;;;;;17.40;4.97;;;25.60;70.10;;;;;;4993582;28;20182;-72
2023/12/05 12:50:58;;;;;;;19.03;5.07;;;25.60;70.20;;;;;;4986142;28;20213;-72